Time;durP1;ratioP1;P1;durP2;ratioP2;P2;SDS_P1;SDS_P2;PMS_P1;PMS_P2;Temp;Humidity;BMP_temperature;BMP_pressure;BME280_temperature;BME280_humidity;BME280_pressure;Samples;Min_cycle;Max_cycle;Signal;HPM_P1;HPM_P2
2022/06/03 00:02:21;;;;;;;31.42;19.17;;;12.50;99.90;;;;;;5049729;28;20092;-92
2022/06/03 00:04:59;;;;;;;30.48;17.63;;;12.50;99.90;;;;;;5043049;28;20499;-91
2022/06/03 00:07:30;;;;;;;25.50;17.70;;;12.40;99.90;;;;;;5052425;28;20089;-92
2022/06/03 00:10:15;;;;;;;29.38;18.42;;;12.40;99.90;;;;;;5047961;28;20095;-91
2022/06/03 00:12:50;;;;;;;26.83;18.10;;;12.30;99.90;;;;;;5043517;28;20036;-92
2022/06/03 00:16:00;;;;;;;28.55;19.02;;;12.20;99.90;;;;;;5037070;28;20056;-94
2022/06/03 00:19:01;;;;;;;27.57;17.80;;;12.10;99.90;;;;;;4998513;28;20531;-93
2022/06/03 00:21:58;;;;;;;23.52;15.38;;;12.00;99.90;;;;;;5058702;28;20025;-91
2022/06/03 00:25:06;;;;;;;25.42;16.33;;;12.00;99.90;;;;;;5040890;28;20036;-91
2022/06/03 00:27:56;;;;;;;22.13;16.42;;;12.10;99.90;;;;;;5053763;28;20033;-91
2022/06/03 00:30:47;;;;;;;19.17;13.35;;;12.10;99.90;;;;;;5030873;28;20088;-92
2022/06/03 00:33:45;;;;;;;24.52;15.18;;;12.00;99.90;;;;;;5038671;28;20059;-92
2022/06/03 00:36:16;;;;;;;22.40;13.82;;;12.00;99.90;;;;;;5038799;28;20075;-94
2022/06/03 00:38:48;;;;;;;26.13;15.18;;;11.80;99.90;;;;;;5038572;28;20021;-93
2022/06/03 00:41:39;;;;;;;25.70;17.17;;;11.90;99.90;;;;;;5028976;28;20078;-93
2022/06/03 00:44:19;;;;;;;31.58;18.85;;;11.90;99.90;;;;;;5028734;28;20037;-92
2022/06/03 00:47:16;;;;;;;30.13;18.15;;;11.90;99.90;;;;;;5034673;28;20061;-92
2022/06/03 00:50:12;;;;;;;27.75;17.70;;;12.00;99.90;;;;;;5042342;28;20017;-93
2022/06/03 00:53:03;;;;;;;29.52;19.08;;;11.90;99.90;;;;;;5036153;28;20026;-94
2022/06/03 00:55:31;;;;;;;27.85;19.00;;;12.00;99.90;;;;;;5033231;28;20040;-93
2022/06/03 00:58:22;;;;;;;25.90;17.95;;;12.00;99.90;;;;;;5069066;28;20238;-92
2022/06/03 01:01:08;;;;;;;29.45;17.50;;;11.90;99.90;;;;;;5038722;28;20120;-92
2022/06/03 01:03:53;;;;;;;25.92;17.10;;;11.90;99.90;;;;;;5025920;28;20044;-93
2022/06/03 01:06:18;;;;;;;25.42;16.05;;;11.80;99.90;;;;;;5033420;28;20021;-92
2022/06/03 01:08:50;;;;;;;29.80;17.38;;;11.70;99.90;;;;;;5035824;28;20041;-93
2022/06/03 01:11:23;;;;;;;20.90;14.35;;;11.80;99.90;;;;;;5034152;28;20025;-94
2022/06/03 01:14:14;;;;;;;25.65;15.15;;;11.70;99.90;;;;;;5035126;28;20028;-92
2022/06/03 01:16:42;;;;;;;;;;;11.70;99.90;;;;;;5029160;28;20029;-93
2022/06/03 01:19:13;;;;;;;22.15;13.98;;;11.60;99.90;;;;;;5034006;28;19915;-95
2022/06/03 01:21:45;;;;;;;20.90;13.90;;;11.60;99.90;;;;;;5035307;28;20026;-93
2022/06/03 01:24:42;;;;;;;25.02;14.27;;;11.50;99.90;;;;;;5042865;28;20033;-93
2022/06/03 01:27:35;;;;;;;24.98;16.63;;;11.50;99.90;;;;;;5035177;28;20029;-92
2022/06/03 01:30:21;;;;;;;30.95;19.70;;;11.60;99.90;;;;;;5035060;28;20074;-94
2022/06/03 01:33:14;;;;;;;35.58;21.85;;;11.70;99.90;;;;;;5034202;28;20033;-93
2022/06/03 01:35:48;;;;;;;37.40;22.77;;;11.80;99.90;;;;;;5026225;28;20029;-93
2022/06/03 01:38:26;;;;;;;38.83;23.45;;;12.00;99.90;;;;;;5034681;28;20017;-92
2022/06/03 01:41:25;;;;;;;38.97;23.42;;;12.00;99.90;;;;;;5036944;28;20039;-92
2022/06/03 01:44:00;;;;;;;38.40;21.15;;;12.10;99.90;;;;;;5051935;28;20543;-92
2022/06/03 01:46:32;;;;;;;34.47;23.02;;;12.00;99.90;;;;;;5026912;28;20032;-92
2022/06/03 01:48:59;;;;;;;35.75;22.00;;;12.00;99.90;;;;;;5039934;28;20067;-92
2022/06/03 01:51:37;;;;;;;32.50;22.02;;;12.00;99.90;;;;;;5039397;28;20070;-92
2022/06/03 01:54:23;;;;;;;34.33;21.67;;;11.90;99.90;;;;;;5039192;28;20029;-92
2022/06/03 01:57:11;;;;;;;32.97;20.92;;;12.00;99.90;;;;;;5045022;28;20325;-93
2022/06/03 02:00:34;;;;;;;28.90;19.50;;;11.90;99.90;;;;;;5035399;28;20119;-93
2022/06/03 02:03:19;;;;;;;44.00;22.33;;;11.80;99.90;;;;;;4976523;28;20035;-92
2022/06/03 02:06:41;;;;;;;41.17;24.80;;;11.70;99.90;;;;;;4975000;28;20121;-92
2022/06/03 02:09:43;;;;;;;36.58;21.98;;;11.80;99.90;;;;;;5032704;28;20068;-92
2022/06/03 02:12:30;;;;;;;46.50;26.45;;;11.90;99.90;;;;;;5031383;28;20029;-93
2022/06/03 02:15:16;;;;;;;45.80;26.75;;;11.90;99.90;;;;;;5032745;28;20404;-92
2022/06/03 02:17:59;;;;;;;41.05;22.67;;;12.10;99.90;;;;;;5036257;28;20040;-92
2022/06/03 02:20:36;;;;;;;53.63;28.65;;;12.20;99.90;;;;;;5049564;28;20057;-91
2022/06/03 02:23:14;;;;;;;43.58;26.95;;;12.30;99.90;;;;;;5038319;28;20036;-93
2022/06/03 02:25:45;;;;;;;43.78;26.08;;;12.20;99.90;;;;;;5036696;28;20125;-92
2022/06/03 02:28:29;;;;;;;47.22;26.55;;;12.20;99.90;;;;;;5045412;28;20032;-93
2022/06/03 02:31:10;;;;;;;41.63;25.92;;;12.10;99.90;;;;;;5032319;28;20095;-91
2022/06/03 02:34:03;;;;;;;44.28;25.95;;;12.20;99.90;;;;;;5014254;28;20084;-92
2022/06/03 02:37:06;;;;;;;44.83;27.58;;;12.20;99.90;;;;;;5016039;28;20624;-92
2022/06/03 02:39:55;;;;;;;43.83;26.50;;;12.20;99.90;;;;;;5015134;28;20025;-93
2022/06/03 02:43:09;;;;;;;47.63;27.63;;;12.10;99.90;;;;;;5015840;28;20040;-92
2022/06/03 02:46:07;;;;;;;47.50;27.42;;;12.20;99.90;;;;;;4974019;28;20047;-92
2022/06/03 02:48:41;;;;;;;52.42;29.35;;;12.10;99.90;;;;;;5018568;28;20025;-93
2022/06/03 02:51:21;;;;;;;53.58;31.35;;;12.10;99.90;;;;;;5020001;28;20032;-92
2022/06/03 02:54:19;;;;;;;61.20;32.67;;;12.10;99.90;;;;;;5020934;28;20030;-92
2022/06/03 02:57:23;;;;;;;59.35;31.40;;;12.10;99.90;;;;;;4989511;28;20030;-92
2022/06/03 03:00:08;;;;;;;50.25;27.63;;;12.10;99.90;;;;;;5021772;28;20041;-92
2022/06/03 03:02:55;;;;;;;51.72;29.20;;;12.20;99.90;;;;;;5008352;28;20468;-91
2022/06/03 03:05:44;;;;;;;58.13;32.15;;;12.20;99.90;;;;;;5004042;28;20053;-92
2022/06/03 03:08:51;;;;;;;58.65;31.50;;;12.10;99.90;;;;;;5010723;28;20171;-92
2022/06/03 03:11:54;;;;;;;53.67;31.15;;;12.20;99.90;;;;;;5012689;28;20516;-92
2022/06/03 03:14:26;;;;;;;51.42;29.02;;;12.20;99.90;;;;;;5016657;28;20083;-93
2022/06/03 03:17:16;;;;;;;56.60;32.03;;;12.30;99.90;;;;;;5012134;28;20121;-92
2022/06/03 03:19:54;;;;;;;49.10;27.75;;;12.10;99.90;;;;;;5019596;28;20026;-92
2022/06/03 03:23:05;;;;;;;52.70;30.98;;;12.10;99.90;;;;;;5018238;28;20076;-92
2022/06/03 03:25:59;;;;;;;54.28;29.10;;;12.00;99.90;;;;;;5001536;28;20160;-93
2022/06/03 03:28:54;;;;;;;52.90;30.00;;;12.00;99.90;;;;;;5021995;28;20507;-91
2022/06/03 03:31:46;;;;;;;51.08;28.67;;;12.00;99.90;;;;;;5017502;28;20087;-92
2022/06/03 03:34:15;;;;;;;52.95;29.05;;;11.90;99.90;;;;;;5015284;28;20021;-92
2022/06/03 03:37:05;;;;;;;54.45;30.75;;;11.90;99.90;;;;;;5012893;28;20080;-91
2022/06/03 03:40:04;;;;;;;56.10;32.58;;;12.00;99.90;;;;;;5014320;28;20026;-93
2022/06/03 03:42:30;;;;;;;56.40;32.20;;;12.10;99.90;;;;;;5012662;28;20136;-92
2022/06/03 03:45:33;;;;;;;56.15;30.88;;;12.20;99.90;;;;;;5012456;28;20124;-92
2022/06/03 03:48:20;;;;;;;58.70;32.30;;;12.20;99.90;;;;;;5024925;28;20536;-92
2022/06/03 03:50:49;;;;;;;56.42;30.95;;;12.20;99.90;;;;;;5020654;28;20079;-92
2022/06/03 03:53:29;;;;;;;57.65;33.42;;;12.30;99.90;;;;;;5021903;28;20104;-92
2022/06/03 03:56:17;;;;;;;61.42;34.33;;;12.30;99.90;;;;;;5021998;28;20039;-93
2022/06/03 03:59:07;;;;;;;58.42;33.25;;;12.50;99.90;;;;;;5013717;28;20061;-93
2022/06/03 04:02:06;;;;;;;61.58;32.78;;;12.60;99.90;;;;;;5017793;28;20026;-92
2022/06/03 04:04:58;;;;;;;62.50;29.38;;;12.70;99.90;;;;;;5011553;28;20033;-92
2022/06/03 04:07:45;;;;;;;50.70;29.52;;;12.80;99.90;;;;;;5005078;28;20481;-92
2022/06/03 04:10:22;;;;;;;55.63;31.00;;;12.90;99.90;;;;;;5018020;28;20026;-91
2022/06/03 04:13:06;;;;;;;47.80;27.70;;;13.10;99.90;;;;;;5016857;28;20025;-91
2022/06/03 04:15:49;;;;;;;48.22;28.05;;;13.10;99.90;;;;;;5021160;28;20117;-92
2022/06/03 04:18:41;;;;;;;53.40;30.65;;;13.10;99.90;;;;;;5048092;28;20040;-93
2022/06/03 04:21:25;;;;;;;59.20;31.45;;;13.20;99.90;;;;;;5020083;28;20040;-93
2022/06/03 04:24:48;;;;;;;67.40;33.38;;;13.30;99.90;;;;;;5026472;28;20095;-93
2022/06/03 04:27:34;;;;;;;66.53;34.42;;;13.30;99.90;;;;;;5020682;28;20248;-91
2022/06/03 04:30:15;;;;;;;59.45;31.10;;;13.30;99.90;;;;;;5015168;28;20083;-95
2022/06/03 04:33:10;;;;;;;61.00;31.55;;;13.50;99.90;;;;;;5020146;28;20068;-93
2022/06/03 04:36:06;;;;;;;65.28;35.13;;;13.40;99.90;;;;;;5024481;28;20057;-94
2022/06/03 04:38:58;;;;;;;67.18;34.33;;;13.20;99.90;;;;;;5013562;28;20033;-93
2022/06/03 04:41:46;;;;;;;63.13;35.90;;;13.30;99.90;;;;;;5013816;28;20053;-93
2022/06/03 04:44:33;;;;;;;60.38;33.00;;;13.10;99.90;;;;;;5019708;28;20032;-94
2022/06/03 04:47:33;;;;;;;65.78;34.20;;;13.10;99.90;;;;;;5009567;28;20628;-93
2022/06/03 04:50:26;;;;;;;65.53;34.30;;;13.10;99.90;;;;;;5019984;28;20028;-95
2022/06/03 04:53:33;;;;;;;70.45;37.20;;;13.10;99.90;;;;;;5005863;28;20156;-92
2022/06/03 04:56:19;;;;;;;60.75;35.28;;;13.10;99.90;;;;;;5019149;28;20045;-93
2022/06/03 04:59:22;;;;;;;62.78;34.90;;;13.20;99.90;;;;;;5031199;28;21034;-94
2022/06/03 05:02:07;;;;;;;58.92;34.15;;;13.10;99.90;;;;;;5009500;28;20088;-94
2022/06/03 05:05:04;;;;;;;70.65;33.60;;;13.10;99.90;;;;;;5005779;28;20026;-93
2022/06/03 05:08:13;;;;;;;60.83;33.17;;;13.10;99.90;;;;;;5009529;28;20136;-93
2022/06/03 05:11:08;;;;;;;65.18;34.15;;;13.10;99.90;;;;;;5047181;28;20029;-94
2022/06/03 05:14:14;;;;;;;69.28;37.38;;;12.90;99.90;;;;;;5017641;28;20030;-93
2022/06/03 05:17:27;;;;;;;68.03;35.92;;;12.80;99.90;;;;;;4980655;28;20030;-95
2022/06/03 05:20:05;;;;;;;73.78;37.88;;;12.80;99.90;;;;;;4973469;28;20046;-84
2022/06/03 05:22:48;;;;;;;77.22;37.60;;;13.00;99.90;;;;;;5014545;28;20092;-83
2022/06/03 05:25:32;;;;;;;72.28;37.60;;;13.10;99.90;;;;;;5016089;28;20030;-92
2022/06/03 05:28:25;;;;;;;72.18;34.92;;;13.40;99.90;;;;;;5021894;28;20030;-84
2022/06/03 05:31:08;;;;;;;65.05;36.72;;;13.60;99.90;;;;;;5007171;28;20410;-81
2022/06/03 05:33:57;;;;;;;73.50;37.63;;;13.70;99.90;;;;;;5014994;28;20037;-81
2022/06/03 05:36:50;;;;;;;78.25;37.70;;;13.80;99.90;;;;;;5015484;28;20469;-81
2022/06/03 05:39:35;;;;;;;65.63;36.05;;;13.90;99.90;;;;;;5021380;28;20129;-81
2022/06/03 05:42:27;;;;;;;70.93;38.30;;;14.10;99.90;;;;;;5013437;28;20104;-81
2022/06/03 05:45:32;;;;;;;69.90;36.35;;;14.20;99.90;;;;;;5006515;28;20057;-81
2022/06/03 05:48:04;;;;;;;77.93;40.00;;;14.40;99.90;;;;;;5025953;28;20038;-80
2022/06/03 05:50:53;;;;;;;67.60;36.13;;;14.20;99.90;;;;;;5026747;28;20079;-94
2022/06/03 05:53:28;;;;;;;68.93;36.67;;;14.40;99.90;;;;;;5019871;28;20040;-92
2022/06/03 05:56:31;;;;;;;62.13;34.97;;;14.60;99.90;;;;;;5019263;28;20030;-93
2022/06/03 05:59:05;;;;;;;64.60;34.72;;;14.60;99.90;;;;;;5020012;28;20117;-92
2022/06/03 06:02:04;;;;;;;64.68;34.88;;;14.70;99.90;;;;;;5020049;28;20060;-92
2022/06/03 06:05:01;;;;;;;61.63;34.78;;;14.80;99.90;;;;;;5016154;28;20042;-92
2022/06/03 06:07:43;;;;;;;63.03;34.88;;;14.80;99.90;;;;;;5017963;28;20022;-91
2022/06/03 06:10:28;;;;;;;64.03;35.38;;;14.90;99.90;;;;;;5008068;28;20058;-92
2022/06/03 06:13:27;;;;;;;75.97;33.75;;;15.10;99.90;;;;;;5012728;28;20033;-91
2022/06/03 06:16:22;;;;;;;56.92;31.92;;;15.30;99.90;;;;;;5014125;28;20037;-92
2022/06/03 06:19:00;;;;;;;61.35;34.72;;;15.50;99.90;;;;;;5016231;28;20120;-91
2022/06/03 06:22:00;;;;;;;65.85;34.38;;;15.60;99.90;;;;;;5017687;28;20034;-92
2022/06/03 06:24:34;;;;;;;59.80;33.63;;;15.70;99.90;;;;;;5021344;28;20034;-91
2022/06/03 06:27:35;;;;;;;53.60;32.13;;;15.80;99.90;;;;;;5015351;28;20018;-92
2022/06/03 06:30:17;;;;;;;58.13;34.55;;;15.90;99.90;;;;;;4993140;28;20042;-92
2022/06/03 06:33:07;;;;;;;58.85;33.20;;;15.90;99.90;;;;;;5016191;28;20034;-91
2022/06/03 06:35:53;;;;;;;56.17;33.30;;;16.00;99.90;;;;;;5019644;28;20025;-92
2022/06/03 06:38:40;;;;;;;52.83;31.42;;;16.20;99.90;;;;;;5013655;28;20501;-91
2022/06/03 06:41:27;;;;;;;51.25;30.88;;;16.30;99.90;;;;;;5008895;28;20033;-93
2022/06/03 06:44:42;;;;;;;50.88;30.80;;;16.10;99.90;;;;;;5009538;28;20551;-91
2022/06/03 06:47:18;;;;;;;52.58;31.73;;;16.30;99.90;;;;;;4999940;28;20034;-91
2022/06/03 06:50:15;;;;;;;52.38;32.58;;;16.40;99.90;;;;;;5035912;28;20028;-90
2022/06/03 06:53:11;;;;;;;51.10;31.42;;;16.60;99.90;;;;;;5019724;28;20025;-90
2022/06/03 06:56:02;;;;;;;50.22;29.60;;;16.70;99.90;;;;;;4986407;28;20048;-90
2022/06/03 06:58:28;;;;;;;;;;;16.90;99.90;;;;;;5020628;28;20053;-90
2022/06/03 07:00:54;;;;;;;39.85;27.25;;;17.10;99.90;;;;;;5018116;28;20377;-91
2022/06/03 07:03:45;;;;;;;45.00;27.70;;;17.10;99.90;;;;;;5014317;28;20039;-91
2022/06/03 07:06:16;;;;;;;;;;;17.20;99.90;;;;;;5015101;28;20018;-90
2022/06/03 07:08:49;;;;;;;43.72;26.35;;;17.20;99.90;;;;;;5010166;28;19909;-91
2022/06/03 07:11:19;;;;;;;36.30;24.73;;;17.50;99.90;;;;;;5010769;28;20059;-91
2022/06/03 07:13:59;;;;;;;39.70;28.27;;;17.60;99.90;;;;;;5008172;28;20038;-90
2022/06/03 07:19:49;;;;;;;48.85;27.95;;;17.70;99.90;;;;;;5015269;28;20056;-90
2022/06/03 07:22:38;;;;;;;35.10;24.30;;;17.90;99.90;;;;;;5018893;28;20029;-90
2022/06/03 07:25:36;;;;;;;35.20;24.65;;;18.10;99.90;;;;;;5019153;28;20021;-90
2022/06/03 07:28:27;;;;;;;35.28;22.63;;;17.90;99.90;;;;;;5014610;28;20385;-89
2022/06/03 07:31:10;;;;;;;32.28;21.90;;;18.20;99.90;;;;;;5012226;28;20038;-88
2022/06/03 07:33:52;;;;;;;35.97;23.75;;;18.40;99.90;;;;;;5014484;28;20037;-90
2022/06/03 07:36:39;;;;;;;33.17;22.67;;;18.50;99.90;;;;;;5025324;28;20083;-92
2022/06/03 07:39:23;;;;;;;34.83;24.45;;;18.70;99.90;;;;;;5011704;28;20060;-90
2022/06/03 07:42:07;;;;;;;28.52;20.20;;;18.80;99.90;;;;;;5001049;28;20030;-91
2022/06/03 07:44:53;;;;;;;30.27;21.73;;;18.90;99.90;;;;;;5007497;28;20030;-90
2022/06/03 07:47:19;;;;;;;27.00;20.27;;;19.00;99.90;;;;;;5016962;28;20109;-90
2022/06/03 07:50:04;;;;;;;28.90;20.00;;;19.00;99.90;;;;;;5017779;28;20119;-90
2022/06/03 07:52:38;;;;;;;28.10;20.45;;;19.00;99.90;;;;;;5008884;28;20059;-91
2022/06/03 07:55:12;;;;;;;25.10;17.20;;;19.10;99.90;;;;;;5006264;28;20022;-90
2022/06/03 07:57:39;;;;;;;28.52;20.85;;;19.40;99.90;;;;;;5015878;28;20032;-90
2022/06/03 08:00:13;;;;;;;31.65;21.13;;;19.60;99.90;;;;;;5014334;28;20148;-90
2022/06/03 08:02:39;;;;;;;27.48;19.52;;;19.80;99.90;;;;;;5016271;28;20042;-90
2022/06/03 08:05:18;;;;;;;26.98;20.73;;;20.00;99.90;;;;;;5017665;28;20429;-90
2022/06/03 08:10:57;;;;;;;26.58;21.27;;;20.30;99.90;;;;;;5007345;28;20122;-90
2022/06/03 08:13:31;;;;;;;28.55;21.40;;;20.40;99.90;;;;;;5002091;28;20033;-91
2022/06/03 08:16:05;;;;;;;26.52;22.13;;;20.50;99.90;;;;;;5008505;28;20033;-90
2022/06/03 08:18:35;;;;;;;29.95;20.45;;;20.70;99.90;;;;;;4993798;28;20416;-90
2022/06/03 08:21:07;;;;;;;27.70;21.83;;;20.80;99.90;;;;;;5009815;28;20034;-91
2022/06/03 08:23:34;;;;;;;34.42;21.83;;;20.90;99.90;;;;;;4999344;28;20077;-91
2022/06/03 08:26:11;;;;;;;28.10;20.23;;;21.60;99.90;;;;;;5026605;28;20030;-90
2022/06/03 08:28:43;;;;;;;28.38;20.85;;;21.80;99.90;;;;;;5011744;28;20543;-90
2022/06/03 08:31:08;;;;;;;25.42;20.60;;;22.10;99.90;;;;;;5006743;28;20030;-90
2022/06/03 08:33:41;;;;;;;23.88;18.77;;;22.10;98.20;;;;;;5010348;28;20026;-90
2022/06/03 08:36:12;;;;;;;28.10;18.38;;;22.20;97.20;;;;;;5009306;28;20484;-91
2022/06/03 08:38:44;;;;;;;22.52;18.60;;;22.30;96.40;;;;;;4999576;28;20032;-90
2022/06/03 08:41:33;;;;;;;22.15;17.63;;;23.10;98.90;;;;;;5009220;28;20056;-91
2022/06/03 08:44:02;;;;;;;25.63;17.65;;;23.20;92.00;;;;;;5009870;28;20022;-90
2022/06/03 08:46:35;;;;;;;23.08;18.30;;;23.10;95.20;;;;;;5008787;28;20057;-90
2022/06/03 08:49:05;;;;;;;21.42;18.17;;;22.70;96.50;;;;;;5009290;28;20681;-90
2022/06/03 08:51:49;;;;;;;21.00;17.13;;;22.90;95.80;;;;;;5016013;28;20306;-90
2022/06/03 08:54:18;;;;;;;26.77;17.85;;;23.10;95.30;;;;;;5011146;28;20065;-92
2022/06/03 08:56:47;;;;;;;21.60;18.20;;;23.20;94.00;;;;;;5015986;28;20033;-91
2022/06/03 08:59:20;;;;;;;20.30;17.50;;;23.20;95.50;;;;;;5008246;28;20088;-89
2022/06/03 09:02:06;;;;;;;21.83;18.10;;;23.30;92.20;;;;;;5014263;28;20042;-89
2022/06/03 09:04:47;;;;;;;28.38;21.75;;;23.00;93.80;;;;;;5002925;28;20034;-90
2022/06/03 09:07:44;;;;;;;23.73;18.15;;;22.80;96.20;;;;;;5016233;28;20022;-90
2022/06/03 09:10:24;;;;;;;24.63;18.67;;;23.20;94.00;;;;;;5012478;28;20409;-89
2022/06/03 09:13:18;;;;;;;22.08;18.20;;;23.30;94.20;;;;;;5015027;28;20121;-89
2022/06/03 09:15:46;;;;;;;20.38;17.00;;;23.50;93.40;;;;;;4997890;28;20026;-89
2022/06/03 09:18:34;;;;;;;21.88;18.13;;;23.40;91.90;;;;;;5008766;28;20443;-89
2022/06/03 09:21:06;;;;;;;19.75;17.60;;;23.40;96.10;;;;;;5021285;28;20033;-89
2022/06/03 09:23:48;;;;;;;19.73;14.98;;;23.80;93.90;;;;;;5046940;28;20032;-90
2022/06/03 09:26:32;;;;;;;26.65;15.98;;;24.00;91.10;;;;;;5007963;28;20022;-89
2022/06/03 09:28:59;;;;;;;20.13;16.45;;;24.20;92.30;;;;;;5030494;28;20066;-89
2022/06/03 09:31:26;;;;;;;25.77;14.65;;;24.10;86.50;;;;;;5007954;28;20058;-89
2022/06/03 09:33:55;;;;;;;20.75;14.93;;;24.00;83.60;;;;;;5006242;28;20397;-88
2022/06/03 09:36:23;;;;;;;21.73;14.90;;;24.10;84.90;;;;;;5014531;28;20049;-89
2022/06/03 09:38:53;;;;;;;17.60;15.68;;;23.90;85.10;;;;;;5014152;28;20030;-88
2022/06/03 09:41:23;;;;;;;19.23;14.00;;;23.70;86.10;;;;;;5011885;28;20493;-90
2022/06/03 09:43:53;;;;;;;20.90;14.80;;;24.20;89.30;;;;;;5014427;28;20556;-92
2022/06/03 09:46:22;;;;;;;17.70;15.23;;;24.40;84.80;;;;;;4998090;28;20528;-90
2022/06/03 09:48:49;;;;;;;20.35;16.00;;;24.30;83.30;;;;;;5016283;28;20072;-90
2022/06/03 09:54:10;;;;;;;17.58;14.73;;;25.00;83.90;;;;;;5015468;28;20040;-89
2022/06/03 09:56:38;;;;;;;17.17;14.63;;;25.10;89.10;;;;;;5009022;28;20057;-90
2022/06/03 09:59:04;;;;;;;15.60;13.85;;;24.90;84.30;;;;;;5021286;28;20128;-89
2022/06/03 10:01:30;;;;;;;16.10;13.05;;;25.00;80.00;;;;;;5016922;28;20037;-92
2022/06/03 10:03:59;;;;;;;17.95;14.20;;;25.60;82.70;;;;;;5020392;28;20045;-90
2022/06/03 10:14:42;;;;;;;26.70;14.88;;;25.60;76.50;;;;;;5010343;28;20049;-90
2022/06/03 10:17:11;;;;;;;15.27;13.40;;;25.60;73.70;;;;;;5011516;28;20038;-90
2022/06/03 10:19:37;;;;;;;22.10;14.95;;;25.70;75.20;;;;;;5014249;28;20038;-90
2022/06/03 10:22:08;;;;;;;17.70;14.05;;;26.00;76.00;;;;;;5014884;28;20084;-90
2022/06/03 10:24:34;;;;;;;20.30;12.82;;;25.90;80.50;;;;;;5010459;28;20469;-90
2022/06/03 10:27:03;;;;;;;16.00;14.25;;;25.90;68.30;;;;;;5016756;28;20732;-90
2022/06/03 10:29:30;;;;;;;15.18;13.65;;;26.20;73.00;;;;;;5018304;28;20045;-89
2022/06/03 10:32:00;;;;;;;18.02;13.65;;;26.50;73.50;;;;;;5024371;28;20095;-87
2022/06/03 10:34:31;;;;;;;15.93;12.63;;;26.20;69.30;;;;;;5011005;28;20025;-90
2022/06/03 10:36:56;;;;;;;14.63;12.20;;;26.60;65.80;;;;;;5006115;28;20076;-89
2022/06/03 10:39:30;;;;;;;17.33;12.98;;;27.20;67.00;;;;;;5011353;28;20219;-89
2022/06/03 10:41:58;;;;;;;20.65;13.75;;;27.30;70.10;;;;;;5008150;28;20046;-89
2022/06/03 10:44:33;;;;;;;18.95;13.48;;;27.60;63.50;;;;;;5006662;28;20061;-89
2022/06/03 10:47:04;;;;;;;18.20;14.70;;;28.60;58.60;;;;;;5008603;28;20484;-90
2022/06/03 10:49:48;;;;;;;19.15;13.95;;;28.10;64.70;;;;;;5022402;28;20481;-90
2022/06/03 11:01:28;;;;;;;18.15;13.13;;;29.10;62.30;;;;;;4977181;28;20057;-90
2022/06/03 11:03:54;;;;;;;14.10;12.65;;;30.00;51.80;;;;;;4975985;28;20069;-90
2022/06/03 11:06:26;;;;;;;23.02;14.75;;;30.60;51.10;;;;;;4970551;28;20037;-90
2022/06/03 11:08:54;;;;;;;18.33;15.45;;;30.40;52.10;;;;;;4965172;28;20118;-90
2022/06/03 11:11:47;;;;;;;16.45;14.45;;;29.50;52.60;;;;;;4969835;28;20077;-90
2022/06/03 11:14:27;;;;;;;15.20;13.60;;;30.60;49.60;;;;;;4961130;28;20037;-89
2022/06/03 11:17:02;;;;;;;15.35;13.15;;;31.20;49.00;;;;;;4980744;28;20131;-90
2022/06/03 11:19:34;;;;;;;19.45;14.68;;;30.90;46.00;;;;;;4973813;28;20033;-90
2022/06/03 11:22:28;;;;;;;20.85;14.85;;;30.40;47.80;;;;;;4977215;28;20054;-90
2022/06/03 11:25:41;;;;;;;16.52;14.75;;;30.40;49.60;;;;;;4978642;28;20063;-90
2022/06/03 11:28:21;;;;;;;22.30;15.73;;;30.70;45.30;;;;;;4970093;28;20569;-90
2022/06/03 11:30:53;;;;;;;20.17;14.73;;;29.60;52.50;;;;;;4974885;28;20064;-92
2022/06/03 11:33:29;;;;;;;18.23;14.85;;;30.20;48.10;;;;;;4972337;28;20454;-91
2022/06/03 11:36:00;;;;;;;17.45;15.25;;;29.80;50.50;;;;;;4968876;28;20027;-90
2022/06/03 11:38:45;;;;;;;18.55;15.88;;;29.90;49.30;;;;;;4975463;28;20034;-89
2022/06/03 11:41:35;;;;;;;21.20;16.25;;;29.50;50.80;;;;;;4976803;28;20329;-91
2022/06/03 11:44:09;;;;;;;19.55;16.25;;;28.90;50.80;;;;;;4962966;28;20039;-91
2022/06/03 11:46:48;;;;;;;18.95;15.40;;;29.50;51.20;;;;;;4973004;28;20565;-90
2022/06/03 11:49:20;;;;;;;20.67;14.90;;;30.40;50.00;;;;;;4977013;28;20030;-89
2022/06/03 11:51:47;;;;;;;18.35;15.93;;;30.80;44.00;;;;;;4974154;28;20372;-90
2022/06/03 11:54:16;;;;;;;18.02;15.13;;;29.80;49.30;;;;;;4979299;28;20343;-90
2022/06/03 11:56:45;;;;;;;19.83;14.45;;;29.90;46.40;;;;;;4975477;28;20050;-90
2022/06/03 11:59:34;;;;;;;16.60;14.50;;;29.40;48.30;;;;;;5003555;28;20061;-90
2022/06/03 12:02:10;;;;;;;15.48;13.82;;;29.10;51.30;;;;;;5012570;28;20038;-90
2022/06/03 12:05:01;;;;;;;13.70;12.35;;;29.70;49.60;;;;;;5016430;28;20561;-91
2022/06/03 12:07:33;;;;;;;20.70;14.02;;;30.60;47.00;;;;;;5007473;28;20036;-90
2022/06/03 12:10:07;;;;;;;16.77;12.75;;;29.60;45.30;;;;;;5010592;28;20082;-91
2022/06/03 12:15:35;;;;;;;16.85;11.95;;;29.30;49.50;;;;;;5011241;28;20033;-91
2022/06/03 12:18:06;;;;;;;15.77;11.32;;;28.80;48.70;;;;;;5019172;28;20555;-90
2022/06/03 12:20:31;;;;;;;14.07;9.90;;;28.90;45.40;;;;;;5014950;28;20034;-90
2022/06/03 12:23:18;;;;;;;11.07;8.85;;;28.30;46.80;;;;;;5019008;28;20519;-91
2022/06/03 12:26:03;;;;;;;11.10;8.60;;;28.30;44.70;;;;;;5019618;28;20033;-91
2022/06/03 12:28:41;;;;;;;14.85;9.40;;;28.20;46.70;;;;;;5027318;28;20060;-82
2022/06/03 12:31:43;;;;;;;11.50;8.75;;;27.80;50.20;;;;;;5009290;28;20041;-87
2022/06/03 12:34:25;;;;;;;12.50;10.82;;;27.90;48.20;;;;;;5007982;28;20045;-96
2022/06/03 12:37:00;;;;;;;12.68;11.18;;;27.20;52.50;;;;;;5003214;28;20029;-95
2022/06/03 12:39:31;;;;;;;19.30;10.93;;;27.20;53.40;;;;;;5003922;28;20025;-95
2022/06/03 12:42:32;;;;;;;15.15;11.02;;;27.10;51.50;;;;;;5013925;28;20034;-89
2022/06/03 12:45:04;;;;;;;13.50;11.07;;;27.20;54.50;;;;;;5006566;28;20614;-89
2022/06/03 12:47:35;;;;;;;16.13;10.68;;;26.50;56.30;;;;;;5015949;28;20026;-90
2022/06/03 12:50:06;;;;;;;11.27;10.13;;;26.30;55.40;;;;;;5019620;28;20037;-90
2022/06/03 12:52:35;;;;;;;14.20;11.38;;;26.70;54.20;;;;;;5015850;28;20036;-87
2022/06/03 12:55:13;;;;;;;17.50;11.10;;;26.60;55.30;;;;;;5019637;28;20041;-93
2022/06/03 12:57:47;;;;;;;13.25;10.57;;;26.40;56.20;;;;;;5014910;28;20269;-84
2022/06/03 13:00:19;;;;;;;13.18;9.57;;;26.20;58.50;;;;;;5018115;28;20177;-83
2022/06/03 13:02:58;;;;;;;14.05;10.35;;;26.00;58.80;;;;;;4998493;28;20068;-82
2022/06/03 13:05:46;;;;;;;14.75;10.13;;;25.80;60.00;;;;;;5009610;28;20029;-82
2022/06/03 13:09:34;;;;;;;12.32;10.18;;;25.50;61.00;;;;;;5007798;28;20049;-82
2022/06/03 13:11:20;;;;;;;12.57;9.80;;;25.60;61.30;;;;;;5003214;28;20030;-83
2022/06/03 13:13:58;;;;;;;13.27;10.10;;;25.70;61.70;;;;;;5009435;28;20044;-84
2022/06/03 13:16:31;;;;;;;15.20;10.20;;;25.60;62.20;;;;;;5017482;28;20394;-87
2022/06/03 13:19:21;;;;;;;17.52;9.85;;;25.50;64.10;;;;;;5011800;28;20523;-88
2022/06/03 13:22:00;;;;;;;17.02;11.85;;;25.30;64.50;;;;;;5016213;28;20139;-84
2022/06/03 13:24:33;;;;;;;15.35;10.80;;;24.90;67.20;;;;;;5008759;28;20489;-86
2022/06/03 13:27:22;;;;;;;14.27;11.93;;;24.50;71.40;;;;;;5000739;28;20100;-85
2022/06/03 13:29:56;;;;;;;17.35;10.90;;;24.20;74.30;;;;;;4998270;28;20457;-82
2022/06/03 13:32:34;;;;;;;15.93;11.20;;;24.00;75.80;;;;;;5025336;28;20084;-82
2022/06/03 13:35:07;;;;;;;18.30;12.60;;;23.80;75.90;;;;;;5021073;28;20072;-86
2022/06/03 13:37:46;;;;;;;14.60;10.95;;;23.70;77.40;;;;;;4999483;28;20119;-89
2022/06/03 13:40:34;;;;;;;12.45;10.80;;;23.80;77.10;;;;;;5001589;28;20046;-88
2022/06/03 13:43:00;;;;;;;13.15;11.25;;;23.80;77.50;;;;;;5011934;28;20042;-87
2022/06/03 13:45:28;;;;;;;13.98;10.85;;;23.70;75.50;;;;;;5017594;28;20022;-87
2022/06/03 13:47:56;;;;;;;14.13;10.90;;;23.60;79.10;;;;;;5069376;28;20227;-87
2022/06/03 13:50:28;;;;;;;16.13;10.35;;;23.40;81.90;;;;;;5030500;28;20049;-88
2022/06/03 13:53:04;;;;;;;21.40;10.52;;;23.40;79.10;;;;;;5030157;28;20031;-87
2022/06/03 13:55:31;;;;;;;13.07;9.23;;;23.40;76.60;;;;;;5036290;28;20014;-88
2022/06/03 13:58:42;;;;;;;12.13;9.85;;;23.60;72.10;;;;;;5051938;28;20030;-86
2022/06/03 14:01:42;;;;;;;10.75;8.43;;;23.80;71.50;;;;;;5022203;28;20240;-88
2022/06/03 14:04:16;;;;;;;12.45;9.02;;;23.90;70.30;;;;;;5029999;28;20033;-86
2022/06/03 14:06:52;;;;;;;10.63;8.90;;;24.00;70.30;;;;;;5026083;28;20036;-88
2022/06/03 14:09:27;;;;;;;10.55;8.10;;;23.90;70.00;;;;;;5019711;28;20029;-87
2022/06/03 14:12:07;;;;;;;10.18;8.50;;;23.90;70.40;;;;;;5022403;28;20446;-88
2022/06/03 14:14:45;;;;;;;;;;;23.90;72.40;;;;;;5035987;28;20527;-89